Time;durP1;ratioP1;P1;durP2;ratioP2;P2;SDS_P1;SDS_P2;PMS_P1;PMS_P2;Temp;Humidity;BMP_temperature;BMP_pressure;BME280_temperature;BME280_humidity;BME280_pressure;Samples;Min_cycle;Max_cycle;Signal;HPM_P1;HPM_P2
2022/07/16 00:03:44;;;;;;;2.05;0.60;;;20.10;90.40;;;;;;5072253;28;20492;-75
2022/07/16 00:06:09;;;;;;;1.38;0.47;;;20.10;90.40;;;;;;5054311;28;20025;-74
2022/07/16 00:08:35;;;;;;;1.98;0.60;;;20.10;90.40;;;;;;5071769;28;20078;-76
2022/07/16 00:11:00;;;;;;;2.25;0.80;;;20.10;90.40;;;;;;5071810;28;20028;-75
2022/07/16 00:13:26;;;;;;;2.08;0.70;;;20.10;90.40;;;;;;5072067;28;20024;-74
2022/07/16 00:15:53;;;;;;;2.25;0.68;;;20.10;90.40;;;;;;5054015;28;20370;-75
2022/07/16 00:21:04;;;;;;;1.65;0.80;;;20.00;90.50;;;;;;5072231;28;20024;-75
2022/07/16 00:23:29;;;;;;;2.60;0.82;;;20.00;90.40;;;;;;5071663;28;20016;-74
2022/07/16 00:25:55;;;;;;;1.15;0.55;;;20.00;90.40;;;;;;5053866;28;20115;-75
2022/07/16 00:28:20;;;;;;;1.33;0.68;;;20.00;90.50;;;;;;5054043;28;20024;-75
2022/07/16 00:30:46;;;;;;;1.20;0.65;;;20.00;90.50;;;;;;5071753;28;20031;-75
2022/07/16 00:33:11;;;;;;;2.40;0.70;;;20.00;90.60;;;;;;5053875;28;20028;-75
2022/07/16 00:35:37;;;;;;;2.05;0.77;;;20.00;90.60;;;;;;5060839;28;20554;-74
2022/07/16 00:38:04;;;;;;;2.08;0.82;;;20.00;90.60;;;;;;5050584;28;20017;-75
2022/07/16 00:40:30;;;;;;;2.45;0.80;;;20.00;90.60;;;;;;5050417;28;20013;-75
2022/07/16 00:42:55;;;;;;;1.80;0.60;;;20.00;90.60;;;;;;5050341;28;20493;-75
2022/07/16 00:45:20;;;;;;;1.55;0.77;;;20.00;90.60;;;;;;5051403;28;20028;-75
2022/07/16 00:47:46;;;;;;;2.05;0.77;;;20.10;90.60;;;;;;5050503;28;20021;-75
2022/07/16 00:50:11;;;;;;;1.30;0.70;;;20.10;90.50;;;;;;5056671;28;20432;-75
2022/07/16 00:52:37;;;;;;;1.27;0.60;;;20.10;90.70;;;;;;5054456;28;20052;-75
2022/07/16 00:55:04;;;;;;;2.50;1.05;;;20.10;90.40;;;;;;5067293;28;20033;-74
2022/07/16 00:57:30;;;;;;;1.30;0.50;;;20.10;90.50;;;;;;5061225;28;20031;-75
2022/07/16 00:59:55;;;;;;;1.27;0.60;;;20.10;90.50;;;;;;5057204;28;20021;-75
2022/07/16 01:02:21;;;;;;;2.38;0.75;;;20.10;90.60;;;;;;5056056;28;20052;-75
2022/07/16 01:04:47;;;;;;;3.45;0.80;;;20.00;90.50;;;;;;5065814;28;20029;-75
2022/07/16 01:07:13;;;;;;;1.02;0.63;;;20.00;90.60;;;;;;5062127;28;20028;-75
2022/07/16 01:09:39;;;;;;;0.90;0.60;;;20.00;90.60;;;;;;5051364;28;20409;-74
2022/07/16 01:12:05;;;;;;;1.73;0.70;;;20.00;90.70;;;;;;5056708;28;20115;-75
2022/07/16 01:14:31;;;;;;;1.23;0.80;;;20.00;90.70;;;;;;5053290;28;20052;-75
2022/07/16 01:16:57;;;;;;;1.70;0.60;;;20.00;90.50;;;;;;5066768;28;20501;-75
2022/07/16 01:19:22;;;;;;;1.35;0.70;;;20.00;90.70;;;;;;5065011;28;20043;-74
2022/07/16 01:21:48;;;;;;;1.73;0.60;;;19.90;90.60;;;;;;5054253;28;20112;-74
2022/07/16 01:24:13;;;;;;;2.67;0.70;;;19.90;90.70;;;;;;5052631;28;20032;-75
2022/07/16 01:26:39;;;;;;;1.90;0.70;;;20.00;90.70;;;;;;5064595;28;20017;-75
2022/07/16 01:29:04;;;;;;;0.60;0.52;;;20.00;90.70;;;;;;5070608;28;20031;-75
2022/07/16 01:31:30;;;;;;;1.98;0.70;;;20.00;90.70;;;;;;5064798;28;20035;-75
2022/07/16 01:37:02;;;;;;;1.40;0.60;;;20.00;90.60;;;;;;5024120;28;20081;-75
2022/07/16 01:39:29;;;;;;;2.10;0.65;;;20.00;90.60;;;;;;5050747;28;20053;-75
2022/07/16 01:41:57;;;;;;;1.73;0.82;;;20.10;90.50;;;;;;5034885;28;20024;-75
2022/07/16 01:44:27;;;;;;;1.80;0.82;;;20.10;90.50;;;;;;5052944;28;20032;-75
2022/07/16 01:46:54;;;;;;;1.48;0.70;;;20.00;90.50;;;;;;5055141;28;20380;-75
2022/07/16 01:49:20;;;;;;;2.72;0.90;;;20.00;90.50;;;;;;5070480;28;20025;-75
2022/07/16 01:51:45;;;;;;;1.83;0.70;;;20.00;90.60;;;;;;5056087;28;20039;-75
2022/07/16 01:54:12;;;;;;;2.00;0.65;;;20.00;90.60;;;;;;5090015;28;20476;-75
2022/07/16 01:56:37;;;;;;;3.00;0.73;;;20.00;90.70;;;;;;5072009;28;20032;-75
2022/07/16 01:59:03;;;;;;;1.65;0.70;;;19.90;90.60;;;;;;5068935;28;20385;-75
2022/07/16 02:01:28;;;;;;;1.60;0.60;;;19.90;90.60;;;;;;5053199;28;20163;-75
2022/07/16 02:03:54;;;;;;;1.30;0.55;;;20.00;90.60;;;;;;5084635;28;20508;-75
2022/07/16 02:06:19;;;;;;;1.55;0.65;;;19.90;90.70;;;;;;5059094;28;20031;-74
2022/07/16 02:08:45;;;;;;;0.88;0.57;;;19.90;90.70;;;;;;5053073;28;20657;-74
2022/07/16 02:11:10;;;;;;;1.45;0.50;;;19.90;90.70;;;;;;5060661;28;20029;-75
2022/07/16 02:13:36;;;;;;;1.25;0.70;;;19.90;90.70;;;;;;5090242;28;20024;-75
2022/07/16 02:16:01;;;;;;;1.60;0.68;;;19.90;90.80;;;;;;5056344;28;20028;-75
2022/07/16 02:18:27;;;;;;;0.93;0.60;;;19.90;90.80;;;;;;5033570;28;20072;-74
2022/07/16 02:20:52;;;;;;;1.55;0.60;;;19.90;90.70;;;;;;5067565;28;20136;-76
2022/07/16 02:23:18;;;;;;;1.52;0.77;;;19.90;90.70;;;;;;5066221;28;20017;-75
2022/07/16 02:25:44;;;;;;;0.73;0.60;;;20.00;90.70;;;;;;5033297;28;20547;-75
2022/07/16 02:28:10;;;;;;;1.75;0.70;;;20.00;90.60;;;;;;5082854;28;20674;-74
2022/07/16 02:30:44;;;;;;;1.35;0.60;;;20.00;90.60;;;;;;5085268;28;20056;-75
2022/07/16 02:33:13;;;;;;;1.42;0.80;;;20.00;90.50;;;;;;5052847;28;20029;-75
2022/07/16 02:35:39;;;;;;;1.10;0.50;;;20.00;90.40;;;;;;5054997;28;20029;-74
2022/07/16 02:38:06;;;;;;;1.02;0.50;;;20.00;90.50;;;;;;5050553;28;20477;-74
2022/07/16 02:40:33;;;;;;;1.08;0.80;;;20.00;90.60;;;;;;5055834;28;20016;-75
2022/07/16 02:43:00;;;;;;;1.35;0.65;;;20.00;90.60;;;;;;5058245;28;20024;-75
2022/07/16 02:45:26;;;;;;;1.67;0.50;;;19.90;90.60;;;;;;5055848;28;20021;-74
2022/07/16 02:47:51;;;;;;;0.98;0.60;;;19.90;90.50;;;;;;5052225;28;20115;-74
2022/07/16 02:50:18;;;;;;;1.40;0.70;;;19.90;90.70;;;;;;5058753;28;20106;-74
2022/07/16 02:52:44;;;;;;;1.35;0.63;;;19.90;90.70;;;;;;5090519;28;20023;-74
2022/07/16 02:55:09;;;;;;;1.83;0.77;;;19.90;90.70;;;;;;5075188;28;20016;-75
2022/07/16 02:57:35;;;;;;;1.58;0.60;;;19.90;90.70;;;;;;5067453;28;20061;-75
2022/07/16 03:00:02;;;;;;;1.40;0.60;;;19.90;90.70;;;;;;5053795;28;20096;-75
2022/07/16 03:02:27;;;;;;;1.30;0.60;;;19.90;90.80;;;;;;5064603;28;20032;-75
2022/07/16 03:04:52;;;;;;;1.05;0.65;;;19.90;90.70;;;;;;5054058;28;20021;-75
2022/07/16 03:07:18;;;;;;;1.75;0.50;;;19.90;90.80;;;;;;5064928;28;20036;-75
2022/07/16 03:09:43;;;;;;;1.48;0.68;;;19.90;90.80;;;;;;5050712;28;20127;-75
2022/07/16 03:12:09;;;;;;;1.23;0.60;;;19.90;90.80;;;;;;5056571;28;20059;-75
2022/07/16 03:14:34;;;;;;;1.60;0.60;;;19.90;90.70;;;;;;5043836;28;20466;-75
2022/07/16 03:17:01;;;;;;;1.95;0.70;;;19.90;90.70;;;;;;5068079;28;20033;-75
2022/07/16 03:19:27;;;;;;;1.35;0.63;;;20.00;90.60;;;;;;5070160;28;20154;-75
2022/07/16 03:21:52;;;;;;;2.05;0.63;;;19.90;90.50;;;;;;5054558;28;20385;-76
2022/07/16 03:24:17;;;;;;;0.85;0.50;;;20.00;90.50;;;;;;5053020;28;20063;-75
2022/07/16 03:26:43;;;;;;;1.15;0.70;;;20.00;90.50;;;;;;5060568;28;20497;-75
2022/07/16 03:29:08;;;;;;;1.83;0.70;;;20.00;90.60;;;;;;5067416;28;20063;-75
2022/07/16 03:31:34;;;;;;;2.03;0.63;;;20.00;90.60;;;;;;5047066;28;20024;-75
2022/07/16 03:33:59;;;;;;;0.98;0.68;;;19.90;90.70;;;;;;5052529;28;20055;-74
2022/07/16 03:36:26;;;;;;;2.17;0.80;;;19.90;90.70;;;;;;5048112;28;20074;-75
2022/07/16 03:39:03;;;;;;;0.65;0.55;;;19.90;90.70;;;;;;5039078;28;20024;-75
2022/07/16 03:41:29;;;;;;;1.40;0.50;;;19.90;90.80;;;;;;5052716;28;20437;-75
2022/07/16 03:43:54;;;;;;;0.82;0.60;;;19.90;90.70;;;;;;5060955;28;20093;-75
2022/07/16 03:46:20;;;;;;;1.48;0.65;;;19.90;90.70;;;;;;5043513;28;20376;-75
2022/07/16 03:48:46;;;;;;;1.15;0.60;;;19.90;90.80;;;;;;5034740;28;20056;-75
2022/07/16 03:51:12;;;;;;;1.92;0.77;;;19.90;90.80;;;;;;5034528;28;20021;-75
2022/07/16 03:53:38;;;;;;;1.13;0.68;;;19.90;90.80;;;;;;5035605;28;20033;-75
2022/07/16 03:56:04;;;;;;;1.52;0.80;;;19.90;90.80;;;;;;5047853;28;20031;-75
2022/07/16 03:58:30;;;;;;;1.00;0.60;;;19.80;90.80;;;;;;5053824;28;20036;-74
2022/07/16 04:00:56;;;;;;;1.67;0.73;;;19.90;90.80;;;;;;5064917;28;20025;-75
2022/07/16 04:03:22;;;;;;;1.35;0.70;;;19.90;90.80;;;;;;5066546;28;20028;-74
2022/07/16 04:05:48;;;;;;;1.30;0.70;;;19.90;90.80;;;;;;5067012;28;20445;-74
2022/07/16 04:08:13;;;;;;;1.17;0.60;;;19.90;90.70;;;;;;5055633;28;20063;-74
2022/07/16 04:10:39;;;;;;;1.25;0.63;;;19.90;90.60;;;;;;5060336;28;20017;-74
2022/07/16 04:13:05;;;;;;;1.05;0.70;;;19.90;90.60;;;;;;5071152;28;20021;-75
2022/07/16 04:15:30;;;;;;;0.82;0.52;;;20.00;90.50;;;;;;5049867;28;20032;-75
2022/07/16 04:17:56;;;;;;;2.45;0.70;;;19.90;90.50;;;;;;5052354;28;20060;-75
2022/07/16 04:20:21;;;;;;;1.05;0.70;;;19.90;90.50;;;;;;5036387;28;20021;-74
2022/07/16 04:22:47;;;;;;;1.00;0.50;;;19.90;90.60;;;;;;5036026;28;20074;-74
2022/07/16 04:25:13;;;;;;;1.35;0.70;;;19.90;90.70;;;;;;5052721;28;20048;-74
2022/07/16 04:27:39;;;;;;;2.50;0.70;;;19.90;90.80;;;;;;5034137;28;20031;-75
2022/07/16 04:30:07;;;;;;;1.75;0.70;;;19.90;90.80;;;;;;5035994;28;20036;-75
2022/07/16 04:32:33;;;;;;;1.05;0.70;;;19.90;90.80;;;;;;5067382;28;20031;-75
2022/07/16 04:34:59;;;;;;;1.13;0.60;;;19.80;90.70;;;;;;5071671;28;20085;-76
2022/07/16 04:37:25;;;;;;;1.05;0.75;;;19.90;90.80;;;;;;5058557;28;20021;-75
2022/07/16 04:39:51;;;;;;;1.35;0.70;;;19.90;90.80;;;;;;5072285;28;20020;-75
2022/07/16 04:42:16;;;;;;;1.30;0.77;;;19.80;90.80;;;;;;5051824;28;20017;-75
2022/07/16 04:44:42;;;;;;;1.00;0.80;;;19.80;90.80;;;;;;5035777;28;20094;-74
2022/07/16 04:47:07;;;;;;;1.38;0.60;;;19.80;90.80;;;;;;5070443;28;20017;-75
2022/07/16 04:49:33;;;;;;;1.42;0.60;;;19.90;90.80;;;;;;5053025;28;20021;-76
2022/07/16 04:51:58;;;;;;;0.90;0.60;;;19.80;90.80;;;;;;5045329;28;20025;-75
2022/07/16 04:54:24;;;;;;;1.25;0.77;;;19.80;90.80;;;;;;5060359;28;20028;-75
2022/07/16 04:56:49;;;;;;;1.27;0.70;;;19.90;90.80;;;;;;5059484;28;20025;-74
2022/07/16 04:59:15;;;;;;;1.00;0.70;;;19.90;90.70;;;;;;5061212;28;20029;-75
2022/07/16 05:01:41;;;;;;;1.38;0.70;;;19.90;90.60;;;;;;5036017;28;20040;-74
2022/07/16 05:04:06;;;;;;;2.17;0.80;;;19.90;90.60;;;;;;5038496;28;20045;-75
2022/07/16 05:06:32;;;;;;;0.70;0.60;;;19.90;90.50;;;;;;5047410;28;20411;-76
2022/07/16 05:08:57;;;;;;;0.82;0.55;;;19.90;90.40;;;;;;5039561;28;20479;-76
2022/07/16 05:11:24;;;;;;;1.50;0.80;;;19.90;90.50;;;;;;5048422;28;20037;-76
2022/07/16 05:13:52;;;;;;;0.90;0.60;;;19.90;90.60;;;;;;5052582;28;20424;-75
2022/07/16 05:16:18;;;;;;;1.02;0.70;;;19.90;90.60;;;;;;5057753;28;20021;-75
2022/07/16 05:18:44;;;;;;;0.65;0.60;;;19.90;90.60;;;;;;5038223;28;20193;-75
2022/07/16 05:21:09;;;;;;;0.68;0.60;;;19.80;90.70;;;;;;5071601;28;20016;-74
2022/07/16 05:23:35;;;;;;;1.20;0.80;;;19.80;90.60;;;;;;5040292;28;20032;-75
2022/07/16 05:26:00;;;;;;;2.22;0.90;;;19.90;90.70;;;;;;5033262;28;20020;-75
2022/07/16 05:28:26;;;;;;;1.60;0.80;;;19.80;90.70;;;;;;5033318;28;20032;-75
2022/07/16 05:30:51;;;;;;;1.23;0.70;;;19.90;90.70;;;;;;5062771;28;20074;-75
2022/07/16 05:33:17;;;;;;;1.42;0.60;;;19.80;90.70;;;;;;5065395;28;20378;-75
2022/07/16 05:35:42;;;;;;;0.65;0.60;;;19.80;90.60;;;;;;5042198;28;20020;-75
2022/07/16 05:38:08;;;;;;;1.50;0.70;;;19.80;90.60;;;;;;5040564;28;20453;-74
2022/07/16 05:40:33;;;;;;;1.58;0.80;;;19.90;90.60;;;;;;5033531;28;20346;-75
2022/07/16 05:42:59;;;;;;;1.67;0.77;;;19.80;90.50;;;;;;5043552;28;20016;-74
2022/07/16 05:45:24;;;;;;;1.15;0.70;;;19.80;90.50;;;;;;5035093;28;20024;-75
2022/07/16 05:47:50;;;;;;;1.35;0.80;;;19.90;90.70;;;;;;5052929;28;20055;-75
2022/07/16 05:50:15;;;;;;;1.80;0.90;;;19.90;90.50;;;;;;5058414;28;20633;-74
2022/07/16 05:52:41;;;;;;;1.65;0.70;;;19.90;90.50;;;;;;5065990;28;20019;-74
2022/07/16 05:55:07;;;;;;;1.30;0.70;;;20.00;90.30;;;;;;5041103;28;20044;-76
2022/07/16 05:57:33;;;;;;;2.28;0.90;;;20.00;90.20;;;;;;5056112;28;20029;-75
2022/07/16 05:59:58;;;;;;;1.17;0.73;;;20.00;90.10;;;;;;5033435;28;20481;-75
2022/07/16 06:02:24;;;;;;;2.38;0.90;;;20.00;90.10;;;;;;5067414;28;20025;-76
2022/07/16 06:04:49;;;;;;;1.92;0.90;;;20.00;90.00;;;;;;5053688;28;20024;-76
2022/07/16 06:07:15;;;;;;;1.58;0.70;;;20.00;90.10;;;;;;5061870;28;20473;-76
2022/07/16 06:09:41;;;;;;;1.33;0.80;;;20.00;90.10;;;;;;5064080;28;20031;-79
2022/07/16 06:12:06;;;;;;;1.42;0.88;;;20.00;90.20;;;;;;5053495;28;20028;-75
2022/07/16 06:14:32;;;;;;;1.00;0.73;;;20.00;90.20;;;;;;5056786;28;20032;-80
2022/07/16 06:16:57;;;;;;;2.13;0.90;;;19.90;90.20;;;;;;5040890;28;20025;-76
2022/07/16 06:19:23;;;;;;;1.65;0.85;;;20.00;90.30;;;;;;5039116;28;20482;-76
2022/07/16 06:21:49;;;;;;;2.45;0.95;;;19.90;90.30;;;;;;5054736;28;20021;-76
2022/07/16 06:24:14;;;;;;;3.83;0.98;;;20.00;90.10;;;;;;5043423;28;20470;-76
2022/07/16 06:26:47;;;;;;;6.18;1.20;;;20.00;90.00;;;;;;5057068;28;20024;-76
2022/07/16 06:29:16;;;;;;;8.40;1.35;;;19.90;88.70;;;;;;5053614;28;20055;-76
2022/07/16 06:31:43;;;;;;;12.82;1.80;;;20.00;89.60;;;;;;5057962;28;20535;-76
2022/07/16 06:34:08;;;;;;;15.45;2.20;;;20.00;88.70;;;;;;5072453;28;20028;-77
2022/07/16 06:36:34;;;;;;;10.15;2.05;;;19.90;88.90;;;;;;5057429;28;20588;-80
2022/07/16 06:38:59;;;;;;;10.68;1.80;;;20.00;89.10;;;;;;5056099;28;20039;-77
2022/07/16 06:41:25;;;;;;;13.68;2.40;;;20.00;89.00;;;;;;5041006;28;20012;-76
2022/07/16 06:43:51;;;;;;;8.10;1.52;;;20.10;88.80;;;;;;5041971;28;20051;-76
2022/07/16 06:46:16;;;;;;;12.45;1.58;;;20.10;88.50;;;;;;5053585;28;20032;-77
2022/07/16 06:48:42;;;;;;;6.82;1.50;;;20.20;88.40;;;;;;5036569;28;20442;-75
2022/07/16 06:51:07;;;;;;;10.98;1.80;;;20.10;88.20;;;;;;5069865;28;20025;-76
2022/07/16 06:53:37;;;;;;;8.85;1.67;;;20.10;88.10;;;;;;5036029;28;20111;-76
2022/07/16 06:56:03;;;;;;;11.50;2.22;;;20.20;88.30;;;;;;5046978;28;20500;-76
2022/07/16 06:58:29;;;;;;;11.20;1.85;;;20.10;88.40;;;;;;5071268;28;20381;-76
2022/07/16 07:00:55;;;;;;;8.48;1.88;;;20.10;88.40;;;;;;5074740;28;20023;-78
2022/07/16 07:03:20;;;;;;;7.43;1.65;;;20.10;88.60;;;;;;5056326;28;20027;-75
2022/07/16 07:05:46;;;;;;;5.22;1.38;;;20.10;88.70;;;;;;5073976;28;20029;-76
2022/07/16 07:08:11;;;;;;;5.78;1.55;;;20.10;88.80;;;;;;5073806;28;20016;-76
2022/07/16 07:10:37;;;;;;;9.93;1.90;;;20.10;88.80;;;;;;5055964;28;20031;-75
2022/07/16 07:13:03;;;;;;;8.15;1.80;;;20.00;88.80;;;;;;5064586;28;20477;-76
2022/07/16 07:15:29;;;;;;;6.57;1.63;;;20.10;88.70;;;;;;5044664;28;20033;-76
2022/07/16 07:17:54;;;;;;;7.00;1.70;;;20.10;88.90;;;;;;5035709;28;20024;-75
2022/07/16 07:20:20;;;;;;;7.22;2.03;;;20.10;88.90;;;;;;5059258;28;20092;-76
2022/07/16 07:22:45;;;;;;;5.60;1.60;;;20.10;88.90;;;;;;5055710;28;20044;-76
2022/07/16 07:25:11;;;;;;;7.68;1.60;;;20.10;88.80;;;;;;5062325;28;20013;-76
2022/07/16 07:27:36;;;;;;;5.20;1.70;;;20.10;88.80;;;;;;5073324;28;20025;-76
2022/07/16 07:30:03;;;;;;;4.60;1.30;;;20.10;89.00;;;;;;5055569;28;20024;-76
2022/07/16 07:32:29;;;;;;;8.20;1.60;;;20.10;89.00;;;;;;5071753;28;20570;-77
2022/07/16 07:34:54;;;;;;;4.18;1.35;;;20.20;88.70;;;;;;5044845;28;20024;-76
2022/07/16 07:37:20;;;;;;;7.25;1.77;;;20.20;88.50;;;;;;5069985;28;20391;-75
2022/07/16 07:39:45;;;;;;;4.18;1.58;;;20.30;88.30;;;;;;5041822;28;20055;-79
2022/07/16 07:42:12;;;;;;;6.53;1.48;;;20.30;88.00;;;;;;5071779;28;20043;-76
2022/07/16 07:44:38;;;;;;;5.85;1.45;;;20.30;87.90;;;;;;5054569;28;20024;-75
2022/07/16 07:47:03;;;;;;;5.97;1.95;;;20.30;87.80;;;;;;5054815;28;20020;-75
2022/07/16 07:49:29;;;;;;;13.15;2.28;;;20.30;88.00;;;;;;5054755;28;20354;-76
2022/07/16 07:51:54;;;;;;;6.57;1.77;;;20.30;88.10;;;;;;5055349;28;20028;-75
2022/07/16 07:54:21;;;;;;;5.85;1.83;;;20.20;88.40;;;;;;5072434;28;20424;-76
2022/07/16 07:56:47;;;;;;;4.53;1.30;;;20.20;88.50;;;;;;5073064;28;20023;-76
2022/07/16 07:59:13;;;;;;;9.57;1.90;;;20.20;88.50;;;;;;5072756;28;20473;-75
2022/07/16 08:01:38;;;;;;;11.25;2.10;;;20.20;88.40;;;;;;5054268;28;20017;-78
2022/07/16 08:04:04;;;;;;;7.80;1.70;;;20.20;88.70;;;;;;5072356;28;20028;-76
2022/07/16 08:06:30;;;;;;;9.27;1.70;;;20.20;88.30;;;;;;5072476;28;20086;-75
2022/07/16 08:08:56;;;;;;;9.02;1.88;;;20.20;88.60;;;;;;5054946;28;20385;-75
2022/07/16 08:11:21;;;;;;;11.43;2.33;;;20.20;88.60;;;;;;5034618;28;20025;-76
2022/07/16 08:13:47;;;;;;;9.02;1.60;;;20.20;88.60;;;;;;5052172;28;20388;-75
2022/07/16 08:16:12;;;;;;;8.85;1.98;;;20.20;88.70;;;;;;5035783;28;20514;-75
2022/07/16 08:18:38;;;;;;;8.10;2.10;;;20.20;88.60;;;;;;5043572;28;20020;-76
2022/07/16 08:21:03;;;;;;;5.85;1.80;;;20.10;88.70;;;;;;5042592;28;20056;-75
2022/07/16 08:26:13;;;;;;;7.40;1.70;;;20.20;88.70;;;;;;5069777;28;20067;-78
2022/07/16 08:28:41;;;;;;;4.60;1.48;;;20.20;88.60;;;;;;5081850;28;20454;-79
2022/07/16 08:31:07;;;;;;;7.80;1.70;;;20.20;88.40;;;;;;5066862;28;20035;-74
2022/07/16 08:33:33;;;;;;;7.85;1.70;;;20.30;88.20;;;;;;5086492;28;20028;-75
2022/07/16 08:36:00;;;;;;;8.48;1.80;;;20.30;88.60;;;;;;5066648;28;20036;-75
2022/07/16 08:38:26;;;;;;;9.85;2.03;;;20.30;87.90;;;;;;5059544;28;20012;-74
2022/07/16 08:40:54;;;;;;;6.85;2.00;;;20.40;87.80;;;;;;5053785;28;20024;-75
2022/07/16 08:43:20;;;;;;;7.05;1.80;;;20.40;87.80;;;;;;5052840;28;20029;-75
2022/07/16 08:45:46;;;;;;;7.75;1.73;;;20.40;87.80;;;;;;5049906;28;20040;-75
2022/07/16 08:48:13;;;;;;;9.00;2.17;;;20.40;87.90;;;;;;5051960;28;20405;-75
2022/07/16 08:50:40;;;;;;;53.28;5.45;;;20.40;87.60;;;;;;5062515;28;20456;-79
2022/07/16 08:53:07;;;;;;;45.30;4.90;;;20.40;85.30;;;;;;5092333;28;20444;-77
2022/07/16 08:55:33;;;;;;;82.30;7.38;;;20.40;84.30;;;;;;5092363;28;20032;-74
2022/07/16 08:58:01;;;;;;;63.38;5.60;;;20.40;82.30;;;;;;5073825;28;20042;-76
2022/07/16 09:00:27;;;;;;;57.38;5.63;;;20.40;81.90;;;;;;5074063;28;20027;-75
2022/07/16 09:02:52;;;;;;;63.90;6.35;;;20.40;81.90;;;;;;5074053;28;20396;-75
2022/07/16 09:05:18;;;;;;;60.30;5.95;;;20.30;83.60;;;;;;5069152;28;20824;-76
2022/07/16 09:07:45;;;;;;;50.15;4.93;;;20.30;83.10;;;;;;5042113;28;20021;-72
2022/07/16 09:10:10;;;;;;;43.30;5.50;;;20.40;82.00;;;;;;5052220;28;20421;-77
2022/07/16 09:12:45;;;;;;;39.88;4.95;;;20.40;82.00;;;;;;5053721;28;20025;-76
2022/07/16 09:15:31;;;;;;;40.30;4.00;;;20.50;81.90;;;;;;5071430;28;20089;-75
2022/07/16 09:18:17;;;;;;;30.65;3.33;;;20.60;80.60;;;;;;5071767;28;20032;-74
2022/07/16 09:20:57;;;;;;;33.10;3.92;;;20.70;80.10;;;;;;5057527;28;20136;-80
2022/07/16 09:23:29;;;;;;;31.58;3.80;;;20.80;79.50;;;;;;5056825;28;20079;-74
2022/07/16 09:25:58;;;;;;;;;;;20.90;80.40;;;;;;5054201;28;20024;-76
2022/07/16 09:28:26;;;;;;;24.13;3.25;;;21.00;80.80;;;;;;5053579;28;19947;-76
2022/07/16 09:30:52;;;;;;;21.05;2.92;;;21.00;79.90;;;;;;5068326;28;20953;-76
2022/07/16 09:33:20;;;;;;;20.45;2.20;;;21.10;79.10;;;;;;5050031;28;20071;-76
2022/07/16 09:35:48;;;;;;;23.00;2.53;;;21.10;78.70;;;;;;5053970;28;20063;-75
2022/07/16 09:38:14;;;;;;;18.73;2.60;;;21.20;79.00;;;;;;5057129;28;20021;-76
2022/07/16 09:40:47;;;;;;;19.92;2.47;;;21.20;78.00;;;;;;5048966;28;20051;-75
2022/07/16 09:43:13;;;;;;;19.15;2.58;;;21.20;77.70;;;;;;5036934;28;20055;-73
2022/07/16 09:45:46;;;;;;;20.15;3.10;;;21.30;77.30;;;;;;5054007;28;20024;-74
2022/07/16 09:48:28;;;;;;;19.63;2.90;;;21.40;76.80;;;;;;5036648;28;20076;-74
2022/07/16 09:50:56;;;;;;;14.50;2.78;;;21.50;76.20;;;;;;5042240;28;20021;-73
2022/07/16 09:53:24;;;;;;;18.15;2.22;;;21.40;75.80;;;;;;5073808;28;20024;-74
2022/07/16 09:55:54;;;;;;;15.40;2.00;;;21.50;75.50;;;;;;5073671;28;20374;-75
2022/07/16 09:58:19;;;;;;;13.32;2.40;;;21.50;75.00;;;;;;5073807;28;20485;-75
2022/07/16 10:00:45;;;;;;;12.73;2.50;;;21.60;74.70;;;;;;5074369;28;20031;-75
2022/07/16 10:03:11;;;;;;;14.65;2.20;;;21.50;74.70;;;;;;5064711;28;20729;-75
2022/07/16 10:05:37;;;;;;;13.73;2.30;;;21.40;74.80;;;;;;5045771;28;20119;-76
2022/07/16 10:08:03;;;;;;;13.10;1.90;;;21.30;75.00;;;;;;5038890;28;20052;-79
2022/07/16 10:10:28;;;;;;;11.50;2.05;;;21.20;75.20;;;;;;5042686;28;20064;-76
2022/07/16 10:12:54;;;;;;;14.52;1.90;;;21.20;75.20;;;;;;5071618;28;20066;-80
2022/07/16 10:15:20;;;;;;;11.82;1.63;;;21.20;75.00;;;;;;5074837;28;20021;-76
2022/07/16 10:17:46;;;;;;;10.90;2.40;;;21.20;74.30;;;;;;5053782;28;20403;-76
2022/07/16 10:20:17;;;;;;;15.30;1.98;;;21.20;74.50;;;;;;5037302;28;20028;-77
2022/07/16 10:22:45;;;;;;;9.43;1.60;;;21.20;74.50;;;;;;5055311;28;20116;-77
2022/07/16 10:25:26;;;;;;;10.02;2.08;;;21.20;74.10;;;;;;5046665;28;20027;-76
2022/07/16 10:27:53;;;;;;;10.68;1.98;;;21.20;74.10;;;;;;5070696;28;20028;-76
2022/07/16 10:30:26;;;;;;;8.10;1.50;;;21.20;74.00;;;;;;5060933;28;20044;-76
2022/07/16 10:33:05;;;;;;;10.93;1.70;;;21.10;74.20;;;;;;5054033;28;20025;-76
2022/07/16 10:35:42;;;;;;;9.90;1.60;;;21.10;74.30;;;;;;5036325;28;20036;-75
2022/07/16 10:38:57;;;;;;;9.25;1.90;;;21.00;74.30;;;;;;5066108;28;20401;-75
2022/07/16 10:41:27;;;;;;;12.52;2.05;;;20.90;74.40;;;;;;5051481;28;20126;-76
2022/07/16 10:44:09;;;;;;;9.98;1.58;;;20.90;74.00;;;;;;5056788;28;20025;-76
2022/07/16 10:46:34;;;;;;;13.80;2.42;;;20.80;74.50;;;;;;5068353;28;20539;-77
2022/07/16 10:49:00;;;;;;;17.05;2.10;;;20.90;74.00;;;;;;5048527;28;20025;-77
2022/07/16 10:51:25;;;;;;;21.88;3.35;;;20.90;74.20;;;;;;5053637;28;20067;-78
2022/07/16 10:54:14;;;;;;;24.48;2.60;;;21.00;74.00;;;;;;5045659;28;20028;-77
2022/07/16 10:56:44;;;;;;;15.82;2.00;;;21.10;71.50;;;;;;5072434;28;20033;-76
2022/07/16 10:59:12;;;;;;;16.88;2.75;;;21.30;70.40;;;;;;5055862;28;20036;-76
2022/07/16 11:01:41;;;;;;;16.48;2.30;;;21.40;70.20;;;;;;5058060;28;20104;-77
2022/07/16 11:04:09;;;;;;;23.10;2.83;;;21.50;70.30;;;;;;5053876;28;20056;-78
2022/07/16 11:06:35;;;;;;;16.27;2.05;;;21.50;68.70;;;;;;5066766;28;20047;-78
2022/07/16 11:09:02;;;;;;;16.98;1.88;;;21.70;68.80;;;;;;5075560;28;20028;-79
2022/07/16 11:11:39;;;;;;;17.00;2.08;;;21.70;69.20;;;;;;5050566;28;20033;-78
2022/07/16 11:14:06;;;;;;;17.10;2.00;;;21.80;69.50;;;;;;5076944;28;20032;-77
2022/07/16 11:16:32;;;;;;;11.73;1.90;;;21.90;69.90;;;;;;5057628;28;20020;-78
2022/07/16 11:19:03;;;;;;;11.32;1.63;;;22.00;70.10;;;;;;5060148;28;20020;-79
2022/07/16 11:21:29;;;;;;;13.47;1.90;;;22.00;70.30;;;;;;5056126;28;20100;-79
2022/07/16 11:23:58;;;;;;;11.02;1.77;;;22.00;70.70;;;;;;5055315;28;20263;-78
2022/07/16 11:26:24;;;;;;;14.85;2.00;;;21.90;71.20;;;;;;5073762;28;20031;-78
2022/07/16 11:28:55;;;;;;;12.18;2.10;;;21.80;72.00;;;;;;5038801;28;20033;-78
2022/07/16 11:31:25;;;;;;;10.23;1.40;;;21.70;72.80;;;;;;5037737;28;20025;-78
2022/07/16 11:33:56;;;;;;;12.95;1.85;;;21.60;73.30;;;;;;5062166;28;20025;-78
2022/07/16 11:36:26;;;;;;;10.38;2.00;;;21.60;73.90;;;;;;5045479;28;20118;-78
2022/07/16 11:39:04;;;;;;;14.35;1.83;;;21.50;74.30;;;;;;5069525;28;20025;-78
2022/07/16 11:41:31;;;;;;;15.55;1.83;;;21.50;73.40;;;;;;5066873;28;20036;-81
2022/07/16 11:43:57;;;;;;;11.82;1.73;;;21.50;72.40;;;;;;5057824;28;20401;-77
2022/07/16 11:46:31;;;;;;;13.75;1.98;;;21.60;72.20;;;;;;5059481;28;20032;-77
2022/07/16 11:48:57;;;;;;;11.40;1.63;;;21.60;72.30;;;;;;5060888;28;20024;-77
2022/07/16 11:51:22;;;;;;;11.10;1.83;;;21.60;72.50;;;;;;5074584;28;20032;-74
2022/07/16 11:53:52;;;;;;;7.22;1.58;;;21.60;73.00;;;;;;5050138;28;20025;-77
2022/07/16 11:56:32;;;;;;;12.93;1.50;;;21.50;73.20;;;;;;5053234;28;20108;-74
2022/07/16 11:58:58;;;;;;;13.93;1.80;;;21.50;73.60;;;;;;5036364;28;20074;-75
2022/07/16 12:01:24;;;;;;;7.50;1.50;;;21.40;73.90;;;;;;5075778;28;20664;-75
2022/07/16 12:03:56;;;;;;;6.85;1.55;;;21.40;74.20;;;;;;5070644;28;20119;-75
2022/07/16 12:06:22;;;;;;;6.60;1.60;;;21.40;74.60;;;;;;5065226;28;20061;-74
2022/07/16 12:08:56;;;;;;;10.75;1.60;;;21.30;74.90;;;;;;5093392;28;20031;-75
2022/07/16 12:11:33;;;;;;;6.35;1.60;;;21.30;75.10;;;;;;5066181;28;20025;-76
2022/07/16 12:14:00;;;;;;;8.07;1.48;;;21.30;75.40;;;;;;5045570;28;20119;-74
2022/07/16 12:16:26;;;;;;;8.93;1.70;;;21.30;75.60;;;;;;5074265;28;20028;-72
2022/07/16 12:19:06;;;;;;;6.03;1.27;;;21.20;75.80;;;;;;5069947;28;20021;-75
2022/07/16 12:21:39;;;;;;;6.30;1.50;;;21.20;76.00;;;;;;5034826;28;20024;-77
2022/07/16 12:24:08;;;;;;;8.70;1.50;;;21.20;76.30;;;;;;5052487;28;20021;-76
2022/07/16 12:26:39;;;;;;;5.50;1.15;;;21.20;76.40;;;;;;5054739;28;20489;-76
2022/07/16 12:29:08;;;;;;;8.68;1.38;;;21.20;76.50;;;;;;5071087;28;20151;-78
2022/07/16 12:31:34;;;;;;;6.65;1.30;;;21.20;76.60;;;;;;5049151;28;20489;-71
2022/07/16 12:34:02;;;;;;;6.60;1.40;;;21.20;76.70;;;;;;5052068;28;20025;-76
2022/07/16 12:36:30;;;;;;;7.03;1.27;;;21.20;76.70;;;;;;5069684;28;20068;-75
2022/07/16 12:39:06;;;;;;;5.53;1.23;;;21.20;76.80;;;;;;5054705;28;20477;-76
2022/07/16 12:41:36;;;;;;;4.82;1.20;;;21.20;76.90;;;;;;5053223;28;20040;-76
2022/07/16 12:44:05;;;;;;;7.55;1.40;;;21.20;77.00;;;;;;5052274;28;20074;-74
2022/07/16 12:46:35;;;;;;;6.88;1.30;;;21.10;77.20;;;;;;5052461;28;20039;-75
2022/07/16 12:49:05;;;;;;;4.47;1.10;;;21.10;77.30;;;;;;5052626;28;20367;-76
2022/07/16 12:51:36;;;;;;;6.05;1.40;;;21.10;77.40;;;;;;5072108;28;20266;-76
2022/07/16 12:54:04;;;;;;;7.32;1.27;;;21.00;77.40;;;;;;5053416;28;20100;-73
2022/07/16 12:59:15;;;;;;;4.50;1.25;;;21.00;77.40;;;;;;5052632;28;20401;-75